createdAt,value
2018-02-05T00:00:52.185Z,94.18
2018-02-05T00:01:52.152Z,93.99
2018-02-05T00:02:52.142Z,93.80
2018-02-05T00:03:52.128Z,93.80
2018-02-05T00:04:52.119Z,93.23
2018-02-05T00:05:52.098Z,94.08
2018-02-05T00:06:52.083Z,93.13
2018-02-05T00:07:52.077Z,93.61
2018-02-05T00:08:52.054Z,93.13
2018-02-05T00:09:52.047Z,92.29
2018-02-05T00:10:52.030Z,92.76
2018-02-05T00:11:52.015Z,92.76
2018-02-05T00:12:52.003Z,93.51
2018-02-05T00:13:51.996Z,93.80
2018-02-05T00:14:51.970Z,93.89
2018-02-05T00:15:51.980Z,93.61
2018-02-05T00:16:51.945Z,93.56
2018-02-05T00:17:51.930Z,93.80
2018-02-05T00:18:51.916Z,93.80
2018-02-05T00:19:51.902Z,93.51
2018-02-05T00:20:51.891Z,93.42
2018-02-05T00:21:51.888Z,93.80
2018-02-05T00:22:51.865Z,93.80
2018-02-05T00:23:51.853Z,93.99
2018-02-05T00:24:51.850Z,93.70
2018-02-05T00:25:51.824Z,94.18
2018-02-05T00:26:51.821Z,95.21
2018-02-05T00:27:51.801Z,94.93
2018-02-05T00:28:51.794Z,94.93
2018-02-05T00:29:51.784Z,94.65
2018-02-05T00:30:51.755Z,94.93
2018-02-05T00:31:51.751Z,93.80
2018-02-05T00:32:51.749Z,93.70
2018-02-05T00:33:51.716Z,94.27
2018-02-05T00:34:51.703Z,93.80
2018-02-05T00:35:51.688Z,93.61
2018-02-05T00:36:51.676Z,93.80
2018-02-05T00:37:51.678Z,93.89
2018-02-05T00:38:51.647Z,95.21
2018-02-05T00:39:51.657Z,94.93
2018-02-05T00:40:51.624Z,94.84
2018-02-05T00:41:51.612Z,95.31
2018-02-05T00:42:51.618Z,93.80
2018-02-05T00:43:51.584Z,94.65
2018-02-05T00:44:51.570Z,94.84
2018-02-05T00:45:51.558Z,94.74
2018-02-05T00:46:51.546Z,93.70
2018-02-05T00:47:51.536Z,94.08
2018-02-05T00:48:51.535Z,94.46
2018-02-05T00:49:51.506Z,94.84
2018-02-05T00:50:51.488Z,94.93
2018-02-05T00:51:51.491Z,94.37
2018-02-05T00:52:51.478Z,94.84
2018-02-05T00:53:51.477Z,93.89
2018-02-05T00:54:51.445Z,93.51
2018-02-05T00:55:51.431Z,93.23
2018-02-05T00:56:51.418Z,92.76
2018-02-05T00:57:51.414Z,93.42
2018-02-05T00:58:51.411Z,92.66
2018-02-05T00:59:51.366Z,93.51
2018-02-05T01:00:51.353Z,93.23
2018-02-05T01:01:51.351Z,93.13
2018-02-05T01:02:51.333Z,93.99
2018-02-05T01:03:51.310Z,93.13
2018-02-05T01:04:51.309Z,93.61
2018-02-05T01:05:51.292Z,93.80
2018-02-05T01:06:51.282Z,93.51
2018-02-05T01:07:51.275Z,93.23
2018-02-05T01:08:51.247Z,93.23
2018-02-05T01:09:51.229Z,92.19
2018-02-05T01:10:51.219Z,93.42
2018-02-05T01:11:51.212Z,93.23
2018-02-05T01:12:51.215Z,93.32
2018-02-05T01:13:51.197Z,92.76
2018-02-05T01:14:51.164Z,92.66
2018-02-05T01:15:51.160Z,92.38
2018-02-05T01:16:51.133Z,91.24
2018-02-05T01:17:51.130Z,92.10
2018-02-05T01:18:51.118Z,92.29
2018-02-05T01:19:51.101Z,91.53
2018-02-05T01:20:51.091Z,91.05
2018-02-05T01:21:51.071Z,91.81
2018-02-05T01:22:51.056Z,91.53
2018-02-05T01:23:51.048Z,92.19
2018-02-05T01:24:51.022Z,92.29
2018-02-05T01:25:51.010Z,91.62
2018-02-05T01:26:50.998Z,91.53
2018-02-05T01:27:50.987Z,92.38
2018-02-05T01:28:50.974Z,91.81
2018-02-05T01:29:50.953Z,91.62
2018-02-05T01:30:50.985Z,90.96
2018-02-05T01:31:50.924Z,91.53
2018-02-05T01:32:50.926Z,91.53
2018-02-05T01:33:50.898Z,92.38
2018-02-05T01:34:50.900Z,91.43
2018-02-05T01:35:50.873Z,91.53
2018-02-05T01:36:50.853Z,92.10
2018-02-05T01:37:50.844Z,92.10
2018-02-05T01:38:50.827Z,91.43
2018-02-05T01:39:50.815Z,92.19
2018-02-05T01:40:50.801Z,92.66
2018-02-05T01:41:50.795Z,92.76
2018-02-05T01:42:50.775Z,92.57
2018-02-05T01:43:50.758Z,93.23
2018-02-05T01:44:50.741Z,93.04
2018-02-05T01:45:50.746Z,93.89
2018-02-05T01:46:50.716Z,93.80
2018-02-05T01:47:50.711Z,93.51
2018-02-05T01:48:50.686Z,93.61
2018-02-05T01:49:50.682Z,94.08
2018-02-05T01:50:50.669Z,93.89
2018-02-05T01:51:50.662Z,94.08
2018-02-05T01:52:50.632Z,93.80
2018-02-05T01:53:50.616Z,94.18
2018-02-05T01:54:50.604Z,93.89
2018-02-05T01:55:50.591Z,93.51
2018-02-05T01:56:50.573Z,93.99
2018-02-05T01:57:50.572Z,94.08
2018-02-05T01:58:50.547Z,93.80
2018-02-05T01:59:50.533Z,93.89
2018-02-05T02:00:50.517Z,93.89
2018-02-05T02:01:50.525Z,93.99
2018-02-05T02:02:50.499Z,93.23
2018-02-05T02:03:50.486Z,93.42
2018-02-05T02:04:50.476Z,93.42
2018-02-05T02:05:50.465Z,93.13
2018-02-05T02:06:50.431Z,93.04
2018-02-05T02:07:50.421Z,93.51
2018-02-05T02:08:50.416Z,93.13
2018-02-05T02:09:50.392Z,93.04
2018-02-05T02:10:50.380Z,92.85
2018-02-05T02:11:50.376Z,92.66
2018-02-05T02:12:50.348Z,92.66
2018-02-05T02:13:50.334Z,93.32
2018-02-05T02:14:50.323Z,92.85
2018-02-05T02:15:50.305Z,92.76
2018-02-05T02:16:50.294Z,92.76
2018-02-05T02:17:50.276Z,92.57
2018-02-05T02:18:50.263Z,93.23
2018-02-05T02:19:50.254Z,93.32
2018-02-05T02:20:50.248Z,93.13
2018-02-05T02:21:50.226Z,93.23
2018-02-05T02:22:50.208Z,92.66
2018-02-05T02:23:50.192Z,92.00
2018-02-05T02:24:50.177Z,92.19
2018-02-05T02:25:50.176Z,92.57
2018-02-05T02:26:50.153Z,92.76
2018-02-05T02:27:50.136Z,93.23
2018-02-05T02:28:50.124Z,92.57
2018-02-05T02:29:50.115Z,92.57
2018-02-05T02:30:50.097Z,93.42
2018-02-05T02:31:50.086Z,93.89
2018-02-05T02:32:50.081Z,94.08
2018-02-05T02:33:50.067Z,93.51
2018-02-05T02:34:50.054Z,93.13
2018-02-05T02:35:50.035Z,93.04
2018-02-05T02:36:50.010Z,93.13
2018-02-05T02:37:49.997Z,92.57
2018-02-05T02:38:49.983Z,92.57
2018-02-05T02:39:49.970Z,92.94
2018-02-05T02:40:49.952Z,93.13
2018-02-05T02:41:50.310Z,93.13
2018-02-05T02:42:49.948Z,92.29
2018-02-05T02:43:49.917Z,92.00
2018-02-05T02:44:49.913Z,92.76
2018-02-05T02:45:49.897Z,92.10
2018-02-05T02:46:49.883Z,92.19
2018-02-05T02:47:49.867Z,92.47
2018-02-05T02:48:49.846Z,92.29
2018-02-05T02:49:49.830Z,92.05
2018-02-05T02:50:49.817Z,93.09
2018-02-05T02:51:49.810Z,92.43
2018-02-05T02:52:49.796Z,92.14
2018-02-05T02:53:49.784Z,91.96
2018-02-05T02:54:49.760Z,91.86
2018-02-05T02:55:49.741Z,92.33
2018-02-05T02:56:49.735Z,92.24
2018-02-05T02:57:49.716Z,92.43
2018-02-05T02:58:49.716Z,91.86
2018-02-05T02:59:49.686Z,92.24
2018-02-05T03:00:49.672Z,92.24
2018-02-05T03:01:49.684Z,91.39
2018-02-05T03:02:49.660Z,92.52
2018-02-05T03:03:49.645Z,91.96
2018-02-05T03:04:49.616Z,92.05
2018-02-05T03:05:49.607Z,91.96
2018-02-05T03:06:49.600Z,91.01
2018-02-05T03:07:49.574Z,91.67
2018-02-05T03:08:49.562Z,90.91
2018-02-05T03:09:49.550Z,90.16
2018-02-05T03:10:49.542Z,90.63
2018-02-05T03:11:49.532Z,89.78
2018-02-05T03:12:49.508Z,90.54
2018-02-05T03:13:49.489Z,90.63
2018-02-05T03:14:49.489Z,90.91
2018-02-05T03:15:49.470Z,90.82
2018-02-05T03:16:49.448Z,90.91
2018-02-05T03:17:49.434Z,90.73
2018-02-05T03:18:49.429Z,91.48
2018-02-05T03:19:49.403Z,90.54
2018-02-05T03:20:49.399Z,91.20
2018-02-05T03:21:49.376Z,91.01
2018-02-05T03:22:49.376Z,91.01
2018-02-05T03:23:49.362Z,90.35
2018-02-05T03:24:49.332Z,91.01
2018-02-05T03:25:49.333Z,90.63
2018-02-05T03:26:49.306Z,90.82
2018-02-05T03:27:49.303Z,90.44
2018-02-05T03:28:49.300Z,89.87
2018-02-05T03:29:49.265Z,89.87
2018-02-05T03:30:49.252Z,90.06
2018-02-05T03:31:49.267Z,90.35
2018-02-05T03:32:49.233Z,89.97
2018-02-05T03:33:49.203Z,90.06
2018-02-05T03:34:49.196Z,89.69
2018-02-05T03:35:49.186Z,90.54
2018-02-05T03:36:49.161Z,91.20
2018-02-05T03:37:49.146Z,91.86
2018-02-05T03:38:49.145Z,91.58
2018-02-05T03:39:49.131Z,91.96
2018-02-05T03:40:49.110Z,92.33
2018-02-05T03:41:49.088Z,92.05
2018-02-05T03:42:49.076Z,92.43
2018-02-05T03:43:49.062Z,92.71
2018-02-05T03:44:49.051Z,93.18
2018-02-05T03:45:49.044Z,93.18
2018-02-05T03:46:49.026Z,93.75
2018-02-05T03:47:49.005Z,93.84
2018-02-05T03:48:49.002Z,93.56
2018-02-05T03:49:48.980Z,92.90
2018-02-05T03:50:48.977Z,93.84
2018-02-05T03:51:48.948Z,94.03
2018-02-05T03:52:48.933Z,93.18
2018-02-05T03:53:48.920Z,93.66
2018-02-05T03:54:48.907Z,93.37
2018-02-05T03:55:48.901Z,93.94
2018-02-05T03:56:48.887Z,93.28
2018-02-05T03:57:48.872Z,92.52
2018-02-05T03:58:48.863Z,93.09
2018-02-05T03:59:48.840Z,92.61
2018-02-05T04:00:48.816Z,92.33
2018-02-05T04:01:48.814Z,92.99
2018-02-05T04:02:48.795Z,93.70
2018-02-05T04:03:48.795Z,94.37
2018-02-05T04:04:48.760Z,95.88
2018-02-05T04:05:48.746Z,95.59
2018-02-05T04:06:48.745Z,95.40
2018-02-05T04:07:48.718Z,95.69
2018-02-05T04:08:48.723Z,96.26
2018-02-05T04:09:48.702Z,96.16
2018-02-05T04:10:48.674Z,96.73
2018-02-05T04:11:48.674Z,95.69
2018-02-05T04:12:48.659Z,96.45
2018-02-05T04:13:48.664Z,96.16
2018-02-05T04:14:48.620Z,96.64
2018-02-05T04:15:48.630Z,97.11
2018-02-05T04:16:48.588Z,96.73
2018-02-05T04:17:48.600Z,97.11
2018-02-05T04:18:48.588Z,97.86
2018-02-05T04:19:48.570Z,96.83
2018-02-05T04:22:22.717Z,96.64
2018-02-05T04:23:22.169Z,96.35
2018-02-05T04:25:15.925Z,97.11
2018-02-05T04:26:15.859Z,98.05
2018-02-05T04:27:15.851Z,97.86
2018-02-05T04:28:15.835Z,97.86
2018-02-05T04:29:15.816Z,99.00
2018-02-05T04:30:15.807Z,97.11
2018-02-05T04:31:15.817Z,98.05
2018-02-05T04:32:15.776Z,99.85
2018-02-05T04:33:15.769Z,99.99
2018-02-05T04:34:15.748Z,99.76
2018-02-05T04:35:15.734Z,99.99
2018-02-05T04:36:15.720Z,99.99
2018-02-05T04:37:15.719Z,99.99
2018-02-05T04:38:15.695Z,99.99
2018-02-05T04:39:15.681Z,99.99
2018-02-05T04:40:15.668Z,99.99
2018-02-05T04:41:15.672Z,99.99
2018-02-05T04:42:15.633Z,99.99
2018-02-05T04:43:15.625Z,99.99
2018-02-05T04:44:15.619Z,99.99
2018-02-05T04:45:15.599Z,99.99
2018-02-05T04:46:15.580Z,99.99
2018-02-05T04:47:15.565Z,99.99
2018-02-05T04:48:15.558Z,99.99
2018-02-05T04:49:15.538Z,99.99
2018-02-05T04:50:15.525Z,99.99
2018-02-05T04:51:15.514Z,99.99
2018-02-05T04:52:15.497Z,99.99
2018-02-05T04:53:15.495Z,99.99
2018-02-05T04:54:15.475Z,99.99
2018-02-05T04:55:15.459Z,99.99
2018-02-05T04:56:15.438Z,99.99
2018-02-05T04:57:15.425Z,99.99
2018-02-05T04:58:15.414Z,99.99
2018-02-05T04:59:15.404Z,99.99
2018-02-05T05:00:15.387Z,99.99
2018-02-05T05:01:15.369Z,99.99
2018-02-05T05:02:15.362Z,99.99
2018-02-05T05:03:15.365Z,99.99
2018-02-05T05:04:15.338Z,99.99
2018-02-05T05:05:15.316Z,99.99
2018-02-05T05:06:15.308Z,99.99
2018-02-05T05:07:15.293Z,99.95
2018-02-05T05:08:15.281Z,99.99
2018-02-05T05:09:15.263Z,99.99
2018-02-05T05:10:15.250Z,99.99
2018-02-05T05:11:15.235Z,99.99
2018-02-05T05:12:15.223Z,99.66
2018-02-05T05:13:15.218Z,99.99
2018-02-05T05:14:15.209Z,99.99
2018-02-05T05:15:15.175Z,99.99
2018-02-05T05:16:15.161Z,99.99
2018-02-05T05:17:15.173Z,99.99
2018-02-05T05:18:15.154Z,99.99
2018-02-05T05:19:15.153Z,99.99
2018-02-05T05:20:15.111Z,99.99
2018-02-05T05:21:15.093Z,99.99
2018-02-05T05:22:15.081Z,99.57
2018-02-05T05:23:15.067Z,99.95
2018-02-05T05:24:15.058Z,99.28
2018-02-05T05:25:15.036Z,98.71
2018-02-05T05:26:15.024Z,98.71
2018-02-05T05:27:15.013Z,99.19
2018-02-05T05:28:15.000Z,99.38
2018-02-05T05:29:14.986Z,97.39
2018-02-05T05:30:14.973Z,98.71
2018-02-05T05:31:14.963Z,96.92
2018-02-05T05:32:14.940Z,97.49
2018-02-05T05:33:14.950Z,97.77
2018-02-05T05:34:14.915Z,98.14
2018-02-05T05:35:14.906Z,99.00
2018-02-05T05:36:14.889Z,99.00
2018-02-05T05:37:14.871Z,99.57
2018-02-05T05:38:14.881Z,97.49
2018-02-05T05:39:14.849Z,98.52
2018-02-05T05:40:14.847Z,97.49
2018-02-05T05:41:14.819Z,99.38
2018-02-05T05:42:14.827Z,98.33
2018-02-05T05:43:14.820Z,98.05
2018-02-05T05:44:14.782Z,98.71
2018-02-05T05:45:14.768Z,98.24
2018-02-05T05:46:14.750Z,97.49
2018-02-05T05:47:14.764Z,97.11
2018-02-05T05:48:14.754Z,98.52
2018-02-05T05:49:14.714Z,97.86
2018-02-05T05:50:14.701Z,97.86
2018-02-05T05:51:14.684Z,96.64
2018-02-05T05:52:14.696Z,97.01
2018-02-05T05:53:14.688Z,97.58
2018-02-05T05:54:14.650Z,97.11
2018-02-05T05:55:14.633Z,97.77
2018-02-05T05:56:14.618Z,96.92
2018-02-05T05:57:14.612Z,96.92
2018-02-05T05:58:14.594Z,97.39
2018-02-05T05:59:14.580Z,96.83
2018-02-05T06:00:14.559Z,97.11
2018-02-05T06:01:14.547Z,96.54
2018-02-05T06:02:14.548Z,97.30
2018-02-05T06:03:14.525Z,97.58
2018-02-05T06:04:14.507Z,96.83
2018-02-05T06:05:14.494Z,96.83
2018-02-05T06:06:14.479Z,97.11
2018-02-05T06:07:14.485Z,96.92
2018-02-05T06:08:14.460Z,96.45
2018-02-05T06:09:14.452Z,96.64
2018-02-05T06:10:14.421Z,97.25
2018-02-05T06:11:14.415Z,95.40
2018-02-05T06:12:14.408Z,96.35
2018-02-05T06:13:14.422Z,96.45
2018-02-05T06:14:14.375Z,95.36
2018-02-05T06:15:14.530Z,96.40
2018-02-05T06:16:14.346Z,95.45
2018-02-05T06:17:14.330Z,96.02
2018-02-05T06:18:14.328Z,95.83
2018-02-05T06:19:14.310Z,95.40
2018-02-05T06:20:14.291Z,94.70
2018-02-05T06:21:14.280Z,94.04
2018-02-05T06:22:14.306Z,94.79
2018-02-05T06:23:14.261Z,92.71
2018-02-05T06:24:14.238Z,93.18
2018-02-05T06:25:14.234Z,93.94
2018-02-05T06:26:14.214Z,93.37
2018-02-05T06:27:14.195Z,93.47
2018-02-05T06:28:14.183Z,92.99
2018-02-05T06:29:14.168Z,92.99
2018-02-05T06:30:14.154Z,92.80
2018-02-05T06:31:14.151Z,92.24
2018-02-05T06:32:14.127Z,92.61
2018-02-05T06:33:14.126Z,92.33
2018-02-05T06:34:14.099Z,92.33
2018-02-05T06:35:14.088Z,91.39
2018-02-05T06:36:14.089Z,91.67
2018-02-05T06:37:14.062Z,90.72
2018-02-05T06:38:14.086Z,91.10
2018-02-05T06:39:14.035Z,90.82
2018-02-05T06:40:14.021Z,90.34
2018-02-05T06:41:14.024Z,90.72
2018-02-05T06:42:13.990Z,90.72
2018-02-05T06:43:13.976Z,90.16
2018-02-05T06:44:13.984Z,89.50
2018-02-05T06:45:13.952Z,89.21
2018-02-05T06:46:13.939Z,89.21
2018-02-05T06:47:13.927Z,88.74
2018-02-05T06:48:13.911Z,89.31
2018-02-05T06:49:13.905Z,89.69
2018-02-05T06:50:13.885Z,89.87
2018-02-05T06:51:13.874Z,89.31
2018-02-05T06:52:13.883Z,89.12
2018-02-05T06:53:13.865Z,89.12
2018-02-05T06:54:13.835Z,89.78
2018-02-05T06:55:13.819Z,89.69
2018-02-05T06:56:13.802Z,89.12
2018-02-05T06:57:13.790Z,88.93
2018-02-05T06:58:13.801Z,89.40
2018-02-05T06:59:13.798Z,89.02
2018-02-05T07:00:13.788Z,88.93
2018-02-05T07:01:13.737Z,88.55
2018-02-05T07:02:15.589Z,88.74
2018-02-05T07:03:13.716Z,89.02
2018-02-05T07:04:13.698Z,88.74
2018-02-05T07:05:13.688Z,89.12
2018-02-05T07:06:13.736Z,89.02
2018-02-05T07:07:13.666Z,89.40
2018-02-05T07:08:13.649Z,89.12
2018-02-05T07:09:13.656Z,89.40
2018-02-05T07:10:13.617Z,89.21
2018-02-05T07:11:13.606Z,88.93
2018-02-05T07:12:13.594Z,89.02
2018-02-05T07:13:13.580Z,88.83
2018-02-05T07:14:13.586Z,88.93
2018-02-05T07:15:13.586Z,88.83
2018-02-05T07:16:13.542Z,88.17
2018-02-05T07:17:13.522Z,88.36
2018-02-05T07:18:13.516Z,87.88
2018-02-05T07:19:13.501Z,87.98
2018-02-05T07:20:13.488Z,88.36
2018-02-05T07:21:13.472Z,87.70
2018-02-05T07:22:13.459Z,88.07
2018-02-05T07:23:13.450Z,87.51
2018-02-05T07:24:13.441Z,88.26
2018-02-05T07:25:13.418Z,87.88
2018-02-05T07:26:13.430Z,87.79
2018-02-05T07:27:13.403Z,87.41
2018-02-05T07:28:13.384Z,86.66
2018-02-05T07:29:13.373Z,85.42
2018-02-05T07:30:13.369Z,85.90
2018-02-05T07:31:13.372Z,86.37
2018-02-05T07:32:13.330Z,87.32
2018-02-05T07:33:13.317Z,87.70
2018-02-05T07:34:13.303Z,87.79
2018-02-05T07:35:13.287Z,87.60
2018-02-05T07:36:13.279Z,88.55
2018-02-05T07:37:13.264Z,88.83
2018-02-05T07:38:13.267Z,88.83
2018-02-05T07:39:13.243Z,88.64
2018-02-05T07:40:13.228Z,88.26
2018-02-05T07:41:13.207Z,89.59
2018-02-05T07:42:13.196Z,88.93
2018-02-05T07:43:13.193Z,89.78
2018-02-05T07:44:13.172Z,89.78
2018-02-05T07:45:13.158Z,90.16
2018-02-05T07:46:13.147Z,89.50
2018-02-05T07:47:13.140Z,89.40
2018-02-05T07:48:13.116Z,89.78
2018-02-05T07:49:13.105Z,89.78
2018-02-05T07:50:13.097Z,89.87
2018-02-05T07:51:13.101Z,90.16
2018-02-05T07:52:13.079Z,90.53
2018-02-05T07:53:13.052Z,91.29
2018-02-05T07:54:13.042Z,89.97
2018-02-05T07:55:13.025Z,89.69
2018-02-05T07:56:13.012Z,90.91
2018-02-05T07:57:12.998Z,91.01
2018-02-05T07:58:12.986Z,92.05
2018-02-05T07:59:12.976Z,91.10
2018-02-05T08:00:12.959Z,90.82
2018-02-05T08:01:12.950Z,90.91
2018-02-05T08:02:12.965Z,92.14
2018-02-05T08:03:12.922Z,91.67
2018-02-05T08:04:12.908Z,91.86
2018-02-05T08:05:12.911Z,91.48
2018-02-05T08:06:12.881Z,91.20
2018-02-05T08:07:12.878Z,91.01
2018-02-05T08:08:12.850Z,91.29
2018-02-05T08:09:12.842Z,91.58
2018-02-05T08:10:12.860Z,91.48
2018-02-05T08:11:12.821Z,91.20
2018-02-05T08:12:12.817Z,90.72
2018-02-05T08:13:12.788Z,91.86
2018-02-05T08:14:12.803Z,91.29
2018-02-05T08:15:12.767Z,90.72
2018-02-05T08:16:12.756Z,90.91
2018-02-05T08:17:12.733Z,90.72
2018-02-05T08:18:12.732Z,89.78
2018-02-05T08:19:12.720Z,89.59
2018-02-05T08:20:12.712Z,89.50
2018-02-05T08:21:12.698Z,88.83
2018-02-05T08:22:12.669Z,89.02
2018-02-05T08:23:12.657Z,88.93
2018-02-05T08:24:12.644Z,89.59
2018-02-05T08:25:12.638Z,89.59
2018-02-05T08:26:12.626Z,90.44
2018-02-05T08:27:12.638Z,90.16
2018-02-05T08:28:12.587Z,89.97
2018-02-05T08:29:12.577Z,91.01
2018-02-05T08:30:12.561Z,91.58
2018-02-05T08:31:12.566Z,91.20
2018-02-05T08:32:12.535Z,91.67
2018-02-05T08:33:12.557Z,92.14
2018-02-05T08:34:12.512Z,92.61
2018-02-05T08:35:12.517Z,93.37
2018-02-05T08:36:12.501Z,93.56
2018-02-05T08:37:12.472Z,93.94
2018-02-05T08:38:12.468Z,93.94
2018-02-05T08:39:12.461Z,94.79
2018-02-05T08:40:12.438Z,93.66
2018-02-05T08:41:12.464Z,93.56
2018-02-05T08:42:12.424Z,93.94
2018-02-05T08:43:12.397Z,93.56
2018-02-05T08:44:12.389Z,93.94
2018-02-05T08:45:12.384Z,93.56
2018-02-05T08:46:12.365Z,93.75
2018-02-05T08:47:12.347Z,94.79
2018-02-05T08:48:12.329Z,93.94
2018-02-05T08:49:12.320Z,94.04
2018-02-05T08:50:12.310Z,93.85
2018-02-05T08:51:12.293Z,95.64
2018-02-05T08:52:12.279Z,96.31
2018-02-05T08:53:12.282Z,96.40
2018-02-05T08:54:12.282Z,95.07
2018-02-05T08:55:12.262Z,94.60
2018-02-05T08:56:12.232Z,93.56
2018-02-05T08:57:12.226Z,93.09
2018-02-05T08:58:12.204Z,93.85
2018-02-05T08:59:12.191Z,94.13
2018-02-05T09:00:12.193Z,94.70
2018-02-05T09:01:12.185Z,94.04
2018-02-05T09:02:12.178Z,94.04
2018-02-05T09:03:12.166Z,95.83
2018-02-05T09:04:12.140Z,95.36
2018-02-05T09:05:12.124Z,95.55
2018-02-05T09:06:12.108Z,95.26
2018-02-05T09:07:12.084Z,94.51
2018-02-05T09:08:12.075Z,94.79
2018-02-05T09:09:12.072Z,96.88
2018-02-05T09:10:12.053Z,94.70
2018-02-05T09:11:12.050Z,94.70
2018-02-05T09:12:12.373Z,94.79
2018-02-05T09:13:12.008Z,93.94
2018-02-05T09:14:14.927Z,96.50
2018-02-05T09:15:12.768Z,97.06
2018-02-05T09:16:11.988Z,98.10
2018-02-05T09:17:11.956Z,97.16
2018-02-05T09:18:11.983Z,96.97
2018-02-05T09:19:11.937Z,96.59
2018-02-05T09:20:11.919Z,97.72
2018-02-05T09:21:11.928Z,98.10
2018-02-05T09:22:11.898Z,97.72
2018-02-05T09:23:11.896Z,98.63
2018-02-05T09:24:11.878Z,99.29
2018-02-05T09:25:11.855Z,99.15
2018-02-05T09:26:11.865Z,98.06
2018-02-05T09:27:11.851Z,99.05
2018-02-05T09:28:11.864Z,98.72
2018-02-05T09:29:11.841Z,98.25
2018-02-05T09:30:11.790Z,99.66
2018-02-05T09:31:11.780Z,99.99
2018-02-05T09:32:11.781Z,99.99
2018-02-05T09:33:11.793Z,99.85
2018-02-05T09:34:11.819Z,99.99
2018-02-05T09:35:11.726Z,99.99
2018-02-05T09:36:11.730Z,99.99
2018-02-05T09:37:11.701Z,99.99
2018-02-05T09:38:11.698Z,99.99
2018-02-05T09:39:11.753Z,99.99
2018-02-05T09:40:11.709Z,99.99
2018-02-05T09:41:11.679Z,99.99
2018-02-05T09:42:11.648Z,99.99
2018-02-05T09:43:11.634Z,99.99
2018-02-05T09:44:11.619Z,99.99
2018-02-05T09:45:11.609Z,99.99
2018-02-05T09:46:11.596Z,99.99
2018-02-05T09:47:11.593Z,99.99
2018-02-05T09:48:11.568Z,99.99
2018-02-05T09:49:11.557Z,99.99
2018-02-05T09:50:11.555Z,99.99
2018-02-05T09:51:11.535Z,99.99
2018-02-05T09:52:11.524Z,99.99
2018-02-05T09:53:11.520Z,99.99
2018-02-05T09:54:11.498Z,99.99
2018-02-05T09:55:11.497Z,99.99
2018-02-05T09:56:11.481Z,99.99
2018-02-05T09:57:11.464Z,99.99
2018-02-05T09:58:11.468Z,99.99
2018-02-05T09:59:11.442Z,99.99
2018-02-05T10:00:11.446Z,99.99
2018-02-05T10:01:11.435Z,99.99
2018-02-05T10:02:11.407Z,99.99
2018-02-05T10:03:11.426Z,99.99
2018-02-05T10:04:11.399Z,99.99
2018-02-05T10:05:11.381Z,99.99
2018-02-05T10:06:11.360Z,99.99
2018-02-05T10:07:11.371Z,99.99
2018-02-05T10:08:11.364Z,99.99
2018-02-05T10:09:11.329Z,99.99
2018-02-05T10:10:11.327Z,99.99
2018-02-05T10:11:11.301Z,99.99
2018-02-05T10:12:11.291Z,99.99
2018-02-05T10:13:11.280Z,99.99
2018-02-05T10:14:11.293Z,99.99
2018-02-05T10:15:11.272Z,99.99
2018-02-05T10:16:11.237Z,99.99
2018-02-05T10:17:11.237Z,99.99
2018-02-05T10:18:11.234Z,99.99
2018-02-05T10:19:11.202Z,99.99
2018-02-05T10:20:11.196Z,99.99
2018-02-05T10:21:11.177Z,99.99
2018-02-05T10:22:11.165Z,99.99
2018-02-05T10:23:11.184Z,99.99
2018-02-05T10:24:11.163Z,99.99
2018-02-05T10:25:11.138Z,99.99
2018-02-05T10:26:11.120Z,99.99
2018-02-05T10:27:11.111Z,99.99
2018-02-05T10:28:11.094Z,99.99
2018-02-05T10:29:11.083Z,99.99
2018-02-05T10:30:11.068Z,99.99
2018-02-05T10:31:11.054Z,99.99
2018-02-05T10:32:11.043Z,99.99
2018-02-05T10:33:11.024Z,99.99
2018-02-05T10:34:11.017Z,99.99
2018-02-05T10:35:11.002Z,99.99
2018-02-05T10:36:10.998Z,99.99
2018-02-05T10:37:10.978Z,99.99
2018-02-05T10:38:10.978Z,99.99
2018-02-05T10:39:10.974Z,99.99
2018-02-05T10:40:10.937Z,99.99
2018-02-05T10:41:10.959Z,99.99
2018-02-05T10:42:10.916Z,99.99
2018-02-05T10:43:10.912Z,99.99
2018-02-05T10:44:10.910Z,99.99
2018-02-05T10:45:10.902Z,99.99
2018-02-05T10:46:10.866Z,99.99
2018-02-05T10:47:10.858Z,99.99
2018-02-05T10:48:10.837Z,99.99
2018-02-05T10:49:10.834Z,99.99
2018-02-05T10:50:10.838Z,99.99
2018-02-05T10:51:10.827Z,99.99
2018-02-05T10:52:10.790Z,99.99
2018-02-05T10:53:10.794Z,99.99
2018-02-05T10:54:10.766Z,99.99
2018-02-05T10:55:10.796Z,99.99
2018-02-05T10:56:10.768Z,99.99
2018-02-05T10:57:10.730Z,99.99
2018-02-05T10:58:10.715Z,99.99
2018-02-05T10:59:10.719Z,99.99
2018-02-05T11:00:10.709Z,99.99
2018-02-05T11:01:10.717Z,99.99
2018-02-05T11:02:10.668Z,99.99
2018-02-05T11:03:10.653Z,99.99
2018-02-05T11:04:10.638Z,99.99
2018-02-05T11:05:10.629Z,99.99
2018-02-05T11:06:10.626Z,99.99
2018-02-05T11:07:10.619Z,99.99
2018-02-05T11:08:10.595Z,99.99
2018-02-05T11:09:10.587Z,99.99
2018-02-05T11:10:10.567Z,99.99
2018-02-05T11:11:10.582Z,99.99
2018-02-05T11:12:10.558Z,99.99
2018-02-05T11:13:10.562Z,99.99
2018-02-05T11:14:10.524Z,99.99
2018-02-05T11:15:10.511Z,99.99
2018-02-05T11:16:10.500Z,99.99
2018-02-05T11:17:10.493Z,99.99
2018-02-05T11:18:10.505Z,99.99
2018-02-05T11:19:10.476Z,99.99
2018-02-05T11:20:10.448Z,99.99
2018-02-05T11:21:10.467Z,99.99
2018-02-05T11:22:10.495Z,99.99
2018-02-05T11:23:10.424Z,99.99
2018-02-05T11:24:10.403Z,99.99
2018-02-05T11:25:10.390Z,99.99
2018-02-05T11:26:10.380Z,99.99
2018-02-05T11:27:10.368Z,99.99
2018-02-05T11:28:10.371Z,99.99
2018-02-05T11:29:10.342Z,99.99
2018-02-05T11:30:10.331Z,99.99
2018-02-05T11:31:10.329Z,99.99
2018-02-05T11:32:10.327Z,99.99
2018-02-05T11:33:10.302Z,99.99
2018-02-05T11:34:10.284Z,99.99
2018-02-05T11:35:10.291Z,99.99
2018-02-05T11:36:10.304Z,99.99
2018-02-05T11:37:10.252Z,99.99
2018-02-05T11:38:10.233Z,99.99
2018-02-05T11:39:10.227Z,99.99
2018-02-05T11:40:10.209Z,99.99
2018-02-05T11:41:10.207Z,99.99
2018-02-05T11:42:10.185Z,99.99
2018-02-05T11:43:10.178Z,99.99
2018-02-05T11:44:10.165Z,99.99
2018-02-05T11:45:10.169Z,99.99
2018-02-05T11:46:10.153Z,99.99
2018-02-05T11:47:10.126Z,99.99
2018-02-05T11:48:10.113Z,99.99
2018-02-05T11:49:10.100Z,99.99
2018-02-05T11:50:10.084Z,99.99
2018-02-05T11:51:10.077Z,99.99
2018-02-05T11:52:10.058Z,99.99
2018-02-05T11:53:10.053Z,99.99
2018-02-05T11:54:10.036Z,99.99
2018-02-05T11:55:10.044Z,99.99
2018-02-05T11:56:10.037Z,99.99
2018-02-05T11:57:10.002Z,99.99
2018-02-05T11:58:10.008Z,99.99
2018-02-05T11:59:09.974Z,99.99
2018-02-05T12:00:09.961Z,99.99
2018-02-05T12:01:09.977Z,99.99
2018-02-05T12:02:09.939Z,99.99
2018-02-05T12:03:09.940Z,99.99
2018-02-05T12:04:09.936Z,99.99
2018-02-05T12:05:09.902Z,99.99
2018-02-05T12:06:09.895Z,99.99
2018-02-05T12:07:09.876Z,99.99
2018-02-05T12:08:09.880Z,99.99
2018-02-05T12:09:09.859Z,99.99
2018-02-05T12:10:09.840Z,99.99
2018-02-05T12:11:09.834Z,99.99
2018-02-05T12:12:09.844Z,99.99
2018-02-05T12:13:09.843Z,99.99
2018-02-05T12:14:09.797Z,99.99
2018-02-05T12:15:09.783Z,99.99
2018-02-05T12:16:09.767Z,99.99
2018-02-05T12:17:09.760Z,99.99
2018-02-05T12:18:09.775Z,99.99
2018-02-05T12:19:09.758Z,99.99
2018-02-05T12:20:09.719Z,99.99
2018-02-05T12:21:09.716Z,99.99
2018-02-05T12:22:09.702Z,99.99
2018-02-05T12:23:09.689Z,99.99
2018-02-05T12:24:09.675Z,99.99
2018-02-05T12:25:09.654Z,99.99
2018-02-05T12:26:09.657Z,99.99
2018-02-05T12:27:09.635Z,99.99
2018-02-05T12:28:09.621Z,99.99
2018-02-05T12:29:09.610Z,99.99
2018-02-05T12:30:09.595Z,99.99
2018-02-05T12:31:09.584Z,99.99
2018-02-05T12:32:09.569Z,99.99
2018-02-05T12:33:09.583Z,99.99
2018-02-05T12:34:09.564Z,99.99
2018-02-05T12:35:09.549Z,99.99
2018-02-05T12:36:09.524Z,99.99
2018-02-05T12:37:09.506Z,99.99
2018-02-05T12:38:09.499Z,99.99
2018-02-05T12:39:09.484Z,99.99
2018-02-05T12:40:09.503Z,99.99
2018-02-05T12:41:09.458Z,99.99
2018-02-05T12:42:09.448Z,99.99
2018-02-05T12:43:09.469Z,99.99
2018-02-05T12:44:09.419Z,99.99
2018-02-05T12:45:09.409Z,99.99
2018-02-05T12:46:09.395Z,99.99
2018-02-05T12:47:09.384Z,99.99
2018-02-05T12:48:09.371Z,99.99
2018-02-05T12:49:09.362Z,99.99
2018-02-05T12:50:09.347Z,99.99
2018-02-05T12:51:09.351Z,99.99
2018-02-05T12:52:09.324Z,99.99
2018-02-05T12:53:09.326Z,99.99
2018-02-05T12:54:09.313Z,99.99
2018-02-05T12:55:09.300Z,99.99